Time;durP1;ratioP1;P1;durP2;ratioP2;P2;SDS_P1;SDS_P2;PMS_P1;PMS_P2;Temp;Humidity;BMP_temperature;BMP_pressure;BME280_temperature;BME280_humidity;BME280_pressure;Samples;Min_cycle;Max_cycle;Signal;HPM_P1;HPM_P2
2022/06/29 00:00:18;;;;;;;10.80;6.28;;;;;;;18.24;100.00;94820.06;5051923;28;20637;-62
2022/06/29 00:02:44;;;;;;;7.20;5.88;;;;;;;18.03;100.00;94824.25;5051324;28;20208;-62
2022/06/29 00:05:12;;;;;;;9.25;6.50;;;;;;;17.90;100.00;94827.38;5033451;28;20197;-63
2022/06/29 00:07:39;;;;;;;6.85;6.18;;;;;;;17.96;100.00;94820.72;5051324;28;20360;-59
2022/06/29 00:10:05;;;;;;;9.73;6.05;;;;;;;18.05;100.00;94827.44;5051975;28;20220;-62
2022/06/29 00:12:31;;;;;;;7.65;6.85;;;;;;;18.10;100.00;94823.38;5051839;28;20170;-62
2022/06/29 00:14:57;;;;;;;9.43;6.35;;;;;;;18.20;100.00;94828.31;5051434;28;20200;-61
2022/06/29 00:17:23;;;;;;;7.30;6.60;;;;;;;18.24;100.00;94827.78;5051601;28;20611;-62
2022/06/29 00:19:49;;;;;;;8.63;7.00;;;;;;;18.30;100.00;94829.66;5051351;28;20208;-62
2022/06/29 00:22:15;;;;;;;9.10;7.28;;;;;;;18.32;100.00;94827.72;5051178;28;20257;-62
2022/06/29 00:24:40;;;;;;;11.35;6.90;;;;;;;18.19;100.00;94821.56;5050801;28;20288;-62
2022/06/29 00:27:06;;;;;;;10.80;7.80;;;;;;;18.31;100.00;94827.91;5053953;28;20169;-62
2022/06/29 00:29:32;;;;;;;8.25;6.88;;;;;;;18.39;100.00;94818.34;5037792;28;20267;-58
2022/06/29 00:31:58;;;;;;;8.18;6.88;;;;;;;18.40;100.00;94819.94;5055529;28;20177;-59
2022/06/29 00:34:24;;;;;;;9.65;7.00;;;;;;;18.32;100.00;94820.00;5055574;28;20194;-62
2022/06/29 00:36:49;;;;;;;11.10;7.43;;;;;;;18.26;100.00;94817.34;5054973;28;20221;-62
2022/06/29 00:39:15;;;;;;;9.40;8.40;;;;;;;18.25;100.00;94810.56;5054810;28;20600;-62
2022/06/29 00:41:44;;;;;;;10.82;8.63;;;;;;;18.14;100.00;94818.72;5055601;28;20181;-59
2022/06/29 00:44:14;;;;;;;12.00;8.63;;;;;;;18.40;100.00;94819.16;5055102;28;20204;-62
2022/06/29 00:46:46;;;;;;;9.88;7.85;;;;;;;18.68;100.00;94809.94;5054908;28;20605;-62
2022/06/29 00:49:14;;;;;;;8.57;7.78;;;;;;;18.61;100.00;94813.34;5054967;28;20209;-62
2022/06/29 00:51:42;;;;;;;10.30;7.72;;;;;;;18.45;100.00;94806.59;5054417;28;20169;-63
2022/06/29 00:54:08;;;;;;;9.18;7.30;;;;;;;18.48;100.00;94815.75;5036414;28;20189;-59
2022/06/29 00:56:35;;;;;;;7.63;6.90;;;;;;;18.34;100.00;94815.47;5052675;28;20186;-62
2022/06/29 00:59:04;;;;;;;7.00;6.32;;;;;;;18.17;100.00;94808.06;5036209;28;20192;-61
2022/06/29 01:01:30;;;;;;;8.40;6.95;;;;;;;17.99;100.00;94810.91;5054489;28;20307;-61
2022/06/29 01:03:57;;;;;;;8.18;7.10;;;;;;;17.78;100.00;94795.28;5054403;28;20640;-60
2022/06/29 01:06:23;;;;;;;7.47;6.60;;;;;;;17.69;100.00;94801.47;5036596;28;20217;-58
2022/06/29 01:08:50;;;;;;;7.32;6.60;;;;;;;17.71;100.00;94796.94;5037121;28;20193;-61
2022/06/29 01:11:15;;;;;;;11.20;7.32;;;;;;;17.76;100.00;94796.41;5054513;28;20205;-62
2022/06/29 01:13:44;;;;;;;7.82;6.85;;;;;;;17.80;100.00;94793.34;5036421;28;20196;-61
2022/06/29 01:16:10;;;;;;;8.32;6.63;;;;;;;17.93;100.00;94790.22;5053863;28;20212;-61
2022/06/29 01:18:36;;;;;;;7.30;6.50;;;;;;;18.09;100.00;94790.91;5053849;28;20264;-59
2022/06/29 01:21:06;;;;;;;9.40;6.72;;;;;;;18.14;100.00;94791.19;5054067;28;20206;-58
2022/06/29 01:23:32;;;;;;;7.22;6.07;;;;;;;17.93;100.00;94785.06;5053885;28;20598;-61
2022/06/29 01:26:04;;;;;;;7.93;7.13;;;;;;;18.10;100.00;94794.28;5053776;28;20198;-63
2022/06/29 01:28:31;;;;;;;7.30;6.60;;;;;;;18.18;100.00;94792.44;5053045;28;20189;-62
2022/06/29 01:30:57;;;;;;;7.57;5.95;;;;;;;18.18;100.00;94787.28;5060190;22;20233;-63
2022/06/29 01:33:23;;;;;;;6.75;6.00;;;;;;;18.03;100.00;94786.44;5054137;28;20585;-60
2022/06/29 01:35:49;;;;;;;8.38;5.95;;;;;;;17.75;100.00;94795.66;5053092;28;20221;-59
2022/06/29 01:38:15;;;;;;;7.70;5.68;;;;;;;17.63;100.00;94791.03;5053487;28;20180;-61
2022/06/29 01:40:40;;;;;;;7.13;5.95;;;;;;;17.61;100.00;94797.13;5054061;28;20205;-62
2022/06/29 01:43:06;;;;;;;9.70;6.32;;;;;;;17.52;100.00;94797.34;5052741;28;20181;-61
2022/06/29 01:45:31;;;;;;;7.07;6.38;;;;;;;17.44;100.00;94799.94;5053137;28;20731;-62
2022/06/29 01:47:57;;;;;;;9.73;5.80;;;;;;;17.42;100.00;94794.97;5054128;28;20181;-62
2022/06/29 01:50:23;;;;;;;8.55;6.43;;;;;;;17.39;100.00;94795.28;5053360;28;20228;-61
2022/06/29 01:52:48;;;;;;;8.68;7.20;;;;;;;17.52;100.00;94794.78;5053395;28;20186;-62
2022/06/29 01:55:14;;;;;;;8.43;5.82;;;;;;;17.49;100.00;94783.06;5053560;28;20204;-62
2022/06/29 01:57:48;;;;;;;9.07;6.75;;;;;;;17.43;100.00;94786.28;5052774;28;20292;-61
2022/06/29 02:00:14;;;;;;;7.32;6.63;;;;;;;17.65;100.00;94777.06;5052525;28;20275;-59
2022/06/29 02:02:43;;;;;;;9.25;6.90;;;;;;;17.57;100.00;94782.25;5053029;28;20623;-60
2022/06/29 02:05:09;;;;;;;9.30;7.03;;;;;;;17.56;100.00;94781.44;5052878;28;20237;-61
2022/06/29 02:07:34;;;;;;;10.35;7.40;;;;;;;17.58;100.00;94787.22;5052530;28;20252;-62
2022/06/29 02:10:00;;;;;;;8.77;6.88;;;;;;;17.57;100.00;94780.44;5052345;28;20212;-64
2022/06/29 02:12:26;;;;;;;10.70;6.63;;;;;;;17.60;100.00;94774.19;5052432;28;20177;-62
2022/06/29 02:14:52;;;;;;;8.77;6.60;;;;;;;17.62;100.00;94767.09;5034656;28;20301;-61
2022/06/29 02:17:19;;;;;;;9.70;6.75;;;;;;;17.58;100.00;94768.41;5052829;28;20205;-58
2022/06/29 02:19:46;;;;;;;7.38;6.57;;;;;;;17.63;100.00;94764.34;5053416;28;20201;-58
2022/06/29 02:22:11;;;;;;;6.50;5.90;;;;;;;17.59;100.00;94768.22;5053136;28;20178;-60
2022/06/29 02:24:37;;;;;;;7.70;5.78;;;;;;;17.46;100.00;94767.97;5052726;28;20205;-58
2022/06/29 02:27:03;;;;;;;7.40;6.00;;;;;;;17.35;100.00;94772.69;5053878;28;20514;-62
2022/06/29 02:29:28;;;;;;;6.90;5.68;;;;;;;17.20;100.00;94762.31;5052253;28;20204;-61
2022/06/29 02:34:44;;;;;;;6.20;5.18;;;;;;;17.06;100.00;94759.63;5052612;28;20267;-61
2022/06/29 02:37:14;;;;;;;6.28;5.47;;;;;;;17.11;100.00;94765.84;5052860;28;20698;-61
2022/06/29 02:39:39;;;;;;;6.55;4.95;;;;;;;17.10;100.00;94755.75;5052364;28;20287;-62
2022/06/29 02:42:06;;;;;;;10.00;4.97;;;;;;;17.01;100.00;94752.41;5052373;28;20197;-61
2022/06/29 02:44:31;;;;;;;6.95;4.55;;;;;;;17.05;100.00;94753.69;5052576;28;20201;-58
2022/06/29 02:46:58;;;;;;;6.18;4.72;;;;;;;16.94;100.00;94740.41;5052333;28;20184;-60
2022/06/29 02:49:23;;;;;;;5.38;4.38;;;;;;;16.91;100.00;94738.19;5051740;28;20185;-59
2022/06/29 02:51:49;;;;;;;5.97;4.32;;;;;;;16.82;100.00;94741.72;5052163;28;20158;-59
2022/06/29 02:54:14;;;;;;;5.75;4.63;;;;;;;16.75;100.00;94734.69;5052150;28;20166;-62
2022/06/29 02:56:40;;;;;;;7.03;4.97;;;;;;;16.84;100.00;94734.66;5052671;28;20602;-58
2022/06/29 02:59:06;;;;;;;7.18;4.53;;;;;;;16.72;100.00;94732.44;5052629;28;20177;-61
2022/06/29 03:01:31;;;;;;;10.23;4.75;;;;;;;16.82;100.00;94742.53;5052665;28;20670;-58
2022/06/29 03:03:57;;;;;;;6.55;4.70;;;;;;;16.72;100.00;94734.22;5051961;28;20349;-61
2022/06/29 03:06:23;;;;;;;6.47;4.47;;;;;;;16.69;100.00;94737.13;5052421;28;20209;-64
2022/06/29 03:08:49;;;;;;;7.57;4.97;;;;;;;16.65;100.00;94743.53;5052087;28;20233;-62
2022/06/29 03:11:14;;;;;;;7.95;4.30;;;;;;;16.73;100.00;94744.31;5033751;28;20205;-63
2022/06/29 03:13:39;;;;;;;5.47;4.40;;;;;;;16.63;100.00;94735.19;5052018;28;20244;-58
2022/06/29 03:16:05;;;;;;;8.35;4.85;;;;;;;16.76;100.00;94749.16;5052367;28;20751;-60
2022/06/29 03:18:30;;;;;;;7.53;4.75;;;;;;;16.79;100.00;94743.66;5033719;28;20177;-59
2022/06/29 03:20:56;;;;;;;5.35;4.70;;;;;;;16.50;100.00;94743.41;5051898;28;20205;-60
2022/06/29 03:23:21;;;;;;;5.32;4.82;;;;;;;16.53;100.00;94750.78;5052277;28;20654;-61
2022/06/29 03:25:47;;;;;;;4.18;3.88;;;;;;;16.52;100.00;94753.53;5051930;28;20213;-62
2022/06/29 03:28:12;;;;;;;6.88;4.13;;;;;;;16.48;100.00;94744.53;5051472;28;20177;-62
2022/06/29 03:30:38;;;;;;;5.13;4.30;;;;;;;16.41;100.00;94741.81;5051114;28;20223;-62
2022/06/29 03:33:03;;;;;;;7.65;4.93;;;;;;;16.28;100.00;94744.06;5051342;28;20257;-63
2022/06/29 03:35:29;;;;;;;5.00;4.50;;;;;;;16.43;100.00;94747.56;5052174;28;20206;-62
2022/06/29 03:37:55;;;;;;;5.22;4.38;;;;;;;16.47;100.00;94741.16;5051295;28;20205;-62
2022/06/29 03:40:20;;;;;;;6.20;4.47;;;;;;;16.47;100.00;94732.66;5051479;28;20292;-62
2022/06/29 03:42:46;;;;;;;9.18;4.88;;;;;;;16.47;100.00;94741.16;5051307;28;20188;-62
2022/06/29 03:45:12;;;;;;;6.80;4.78;;;;;;;16.47;100.00;94737.78;5051509;28;20251;-62
2022/06/29 03:47:38;;;;;;;8.63;4.72;;;;;;;16.58;100.00;94750.31;5051491;28;20189;-62
2022/06/29 03:50:08;;;;;;;7.45;5.40;;;;;;;16.55;100.00;94743.72;5051345;28;20205;-62
2022/06/29 03:52:33;;;;;;;7.25;4.82;;;;;;;16.62;100.00;94741.31;5051514;28;20220;-60
2022/06/29 03:54:58;;;;;;;7.63;5.82;;;;;;;16.61;100.00;94745.66;5051303;28;20206;-59
2022/06/29 03:57:24;;;;;;;9.75;5.22;;;;;;;16.69;100.00;94732.78;5051171;28;20200;-59
2022/06/29 03:59:49;;;;;;;9.10;6.22;;;;;;;16.81;100.00;94738.34;5051053;28;20213;-62
2022/06/29 04:02:15;;;;;;;8.25;6.40;;;;;;;16.85;100.00;94742.19;5054657;28;20212;-62
2022/06/29 04:04:41;;;;;;;8.98;6.03;;;;;;;16.98;100.00;94733.97;5054936;28;20206;-59
2022/06/29 04:07:07;;;;;;;7.85;6.10;;;;;;;17.26;100.00;94735.13;5054909;28;20181;-60
2022/06/29 04:09:32;;;;;;;8.93;7.97;;;;;;;17.44;100.00;94736.50;5054856;28;20593;-58
2022/06/29 04:11:58;;;;;;;9.80;6.72;;;;;;;17.24;100.00;94726.78;5054797;28;20562;-59
2022/06/29 04:14:26;;;;;;;7.60;6.90;;;;;;;17.19;100.00;94718.81;5054579;28;20174;-59
2022/06/29 04:16:52;;;;;;;12.25;7.80;;;;;;;17.28;100.00;94723.72;5036714;28;20272;-59
2022/06/29 04:19:19;;;;;;;9.63;8.63;;;;;;;17.06;100.00;94731.38;5054582;28;20193;-61
2022/06/29 04:21:45;;;;;;;13.02;8.38;;;;;;;17.26;100.00;94732.56;5054792;28;20173;-61
2022/06/29 04:24:11;;;;;;;9.18;8.05;;;;;;;17.70;100.00;94733.63;5054781;28;20158;-62
2022/06/29 04:26:37;;;;;;;10.52;8.30;;;;;;;17.90;100.00;94721.91;5037024;28;20280;-61
2022/06/29 04:29:03;;;;;;;9.20;6.88;;;;;;;17.97;100.00;94724.59;5054603;28;20166;-62
2022/06/29 04:31:29;;;;;;;11.23;5.90;;;;;;;18.01;100.00;94726.66;5036482;28;20283;-62
2022/06/29 04:33:54;;;;;;;8.48;6.53;;;;;;;17.92;100.00;94709.66;5036871;28;20180;-62
2022/06/29 04:36:19;;;;;;;6.57;5.65;;;;;;;18.05;100.00;94720.19;5054821;28;20260;-63
2022/06/29 04:38:45;;;;;;;8.57;6.70;;;;;;;18.03;100.00;94714.41;5036552;28;20538;-62
2022/06/29 04:41:11;;;;;;;23.15;7.05;;;;;;;17.86;100.00;94712.13;5054771;28;20210;-61
2022/06/29 04:43:37;;;;;;;8.20;5.88;;;;;;;17.80;100.00;94708.47;5054552;28;20699;-62
2022/06/29 04:46:21;;;;;;;8.02;6.65;;;;;;;18.08;100.00;94706.19;5054674;28;20255;-63
2022/06/29 04:48:56;;;;;;;9.15;7.00;;;;;;;18.17;100.00;94713.66;5054176;28;20194;-65
2022/06/29 04:51:23;;;;;;;9.13;6.65;;;;;;;17.97;100.00;94712.53;5054630;28;20288;-61
2022/06/29 04:53:49;;;;;;;8.48;6.50;;;;;;;17.89;100.00;94722.88;5054164;28;20662;-63
2022/06/29 04:56:16;;;;;;;7.82;6.70;;;;;;;18.33;100.00;94723.78;5054502;28;20213;-63
2022/06/29 04:58:43;;;;;;;10.55;7.78;;;;;;;18.39;100.00;94730.81;5036287;28;20205;-63
2022/06/29 05:01:08;;;;;;;10.32;6.78;;;;;;;18.20;100.00;94728.72;5054866;28;20679;-63
2022/06/29 05:03:34;;;;;;;10.13;7.40;;;;;;;18.18;100.00;94729.91;5053987;28;20348;-60
2022/06/29 05:06:00;;;;;;;11.55;8.27;;;;;;;18.10;100.00;94733.31;5054242;28;20300;-60
2022/06/29 05:08:25;;;;;;;13.25;8.55;;;;;;;18.00;100.00;94731.94;5054357;28;20174;-63
2022/06/29 05:10:51;;;;;;;14.00;9.43;;;;;;;18.04;100.00;94744.31;5054265;28;20277;-63
2022/06/29 05:13:16;;;;;;;12.85;9.35;;;;;;;17.94;100.00;94738.59;5054034;28;20243;-63
2022/06/29 05:15:42;;;;;;;13.90;8.30;;;;;;;18.06;100.00;94747.50;5054365;28;20204;-63
2022/06/29 05:18:07;;;;;;;19.23;10.98;;;;;;;18.35;100.00;94737.28;5054056;28;20211;-63
2022/06/29 05:20:33;;;;;;;16.00;8.48;;;;;;;18.36;100.00;94731.16;5053942;28;20602;-64
2022/06/29 05:22:59;;;;;;;15.05;9.95;;;;;;;18.17;100.00;94731.66;5053938;28;20213;-61
2022/06/29 05:25:25;;;;;;;19.20;10.00;;;;;;;18.12;100.00;94726.22;5053865;28;20251;-62
2022/06/29 05:27:50;;;;;;;15.50;9.90;;;;;;;18.08;100.00;94737.06;5053750;28;20181;-61
2022/06/29 05:30:16;;;;;;;14.07;9.70;;;;;;;18.16;100.00;94732.63;5053435;28;20687;-62
2022/06/29 05:32:43;;;;;;;19.63;11.27;;;;;;;18.14;100.00;94732.00;5035930;28;20182;-61
2022/06/29 05:35:10;;;;;;;13.18;10.88;;;;;;;18.12;100.00;94733.16;5035372;28;20205;-65
2022/06/29 05:37:36;;;;;;;17.00;12.60;;;;;;;18.15;100.00;94731.03;5052738;28;20214;-64
2022/06/29 05:40:02;;;;;;;19.48;12.18;;;;;;;18.17;100.00;94731.66;5051003;28;20300;-63
2022/06/29 05:42:28;;;;;;;14.68;11.82;;;;;;;18.13;100.00;94738.13;5052550;28;20186;-63
2022/06/29 05:44:54;;;;;;;15.80;11.07;;;;;;;18.26;100.00;94735.75;5053301;28;20197;-66
2022/06/29 05:47:19;;;;;;;14.05;11.63;;;;;;;18.25;100.00;94734.16;5053292;28;20551;-65
2022/06/29 05:49:45;;;;;;;12.77;11.40;;;;;;;18.36;100.00;94738.09;5053005;28;20204;-65
2022/06/29 05:52:10;;;;;;;14.27;11.88;;;;;;;18.39;100.00;94741.13;5053049;28;20656;-64
2022/06/29 05:54:36;;;;;;;12.43;10.73;;;;;;;18.55;100.00;94744.53;5053138;28;20965;-64
2022/06/29 05:57:02;;;;;;;15.20;12.63;;;;;;;18.43;100.00;94742.41;5053110;28;20267;-62
2022/06/29 05:59:27;;;;;;;18.77;11.98;;;;;;;18.49;100.00;94750.38;5035384;28;20216;-61
2022/06/29 06:01:53;;;;;;;15.15;12.63;;;;;;;18.57;100.00;94756.25;5052020;28;20174;-59
2022/06/29 06:04:18;;;;;;;16.30;12.43;;;;;;;18.51;100.00;94758.72;5035081;28;20196;-63
2022/06/29 06:06:44;;;;;;;19.00;13.57;;;;;;;18.56;100.00;94759.81;5034902;28;20277;-63
2022/06/29 06:09:10;;;;;;;17.83;12.45;;;;;;;18.58;100.00;94763.03;5052971;28;20199;-62
2022/06/29 06:11:36;;;;;;;12.25;10.95;;;;;;;18.59;100.00;94756.06;5034647;28;20200;-63
2022/06/29 06:14:07;;;;;;;16.70;12.57;;;;;;;18.66;100.00;94760.38;5052671;28;20173;-63
2022/06/29 06:16:33;;;;;;;17.13;14.27;;;;;;;18.68;100.00;94757.63;5053459;28;20213;-62
2022/06/29 06:18:58;;;;;;;19.30;15.52;;;;;;;18.70;100.00;94763.38;5034711;28;20182;-66
2022/06/29 06:21:23;;;;;;;23.45;15.40;;;;;;;18.78;100.00;94758.16;5052944;28;20197;-62
2022/06/29 06:23:49;;;;;;;19.58;14.13;;;;;;;19.01;100.00;94748.53;5034017;28;20178;-61
2022/06/29 06:26:15;;;;;;;18.50;15.43;;;;;;;19.06;100.00;94759.13;5052921;28;20237;-67
2022/06/29 06:28:40;;;;;;;18.60;15.98;;;;;;;19.18;100.00;94748.19;5052602;28;20189;-65
2022/06/29 06:31:07;;;;;;;19.30;14.80;;;;;;;19.47;100.00;94746.56;5051962;28;20710;-64
2022/06/29 06:33:33;;;;;;;18.20;14.35;;;;;;;19.61;100.00;94746.53;5052514;28;20183;-64
2022/06/29 06:35:58;;;;;;;20.17;15.65;;;;;;;19.73;100.00;94746.84;5052541;28;20308;-60
2022/06/29 06:38:24;;;;;;;18.45;13.75;;;;;;;19.71;100.00;94738.50;5052306;28;20181;-65
2022/06/29 06:43:33;;;;;;;20.45;16.27;;;;;;;19.49;100.00;94729.94;5052283;28;20181;-62
2022/06/29 06:45:59;;;;;;;21.90;14.38;;;;;;;19.44;100.00;94736.59;5052443;28;20640;-62
2022/06/29 06:48:25;;;;;;;21.17;14.43;;;;;;;19.42;100.00;94731.63;5052158;28;20182;-62
2022/06/29 06:50:50;;;;;;;17.15;14.63;;;;;;;19.49;100.00;94742.84;5058813;22;20229;-63
2022/06/29 06:53:15;;;;;;;22.08;13.75;;;;;;;19.76;100.00;94736.97;5051930;28;20224;-63
2022/06/29 06:55:41;;;;;;;17.42;14.70;;;;;;;19.74;100.00;94743.28;5052373;28;20197;-62
2022/06/29 06:58:06;;;;;;;17.50;13.35;;;;;;;19.85;100.00;94750.53;5051940;28;20252;-62
2022/06/29 07:00:32;;;;;;;19.98;15.25;;;;;;;19.87;100.00;94749.38;5051773;28;20643;-61
2022/06/29 07:02:57;;;;;;;20.70;13.27;;;;;;;19.97;100.00;94746.50;5051959;28;20541;-62
2022/06/29 07:05:25;;;;;;;19.27;14.60;;;;;;;20.01;100.00;94745.94;5052210;28;20568;-65
2022/06/29 07:07:51;;;;;;;17.55;12.50;;;;;;;20.37;100.00;94750.22;5051582;28;20584;-65
2022/06/29 07:10:16;;;;;;;16.23;10.75;;;;;;;20.29;100.00;94743.44;5033965;28;20344;-63
2022/06/29 07:12:42;;;;;;;20.42;15.18;;;;;;;20.52;100.00;94753.53;5033914;28;20256;-62
2022/06/29 07:15:07;;;;;;;20.83;14.85;;;;;;;20.71;100.00;94771.75;5052023;28;20202;-63
2022/06/29 07:17:33;;;;;;;15.02;11.35;;;;;;;20.55;100.00;94742.81;5033589;28;20237;-61
2022/06/29 07:19:58;;;;;;;15.52;11.02;;;;;;;20.53;100.00;94737.03;5051848;28;20221;-62
2022/06/29 07:22:23;;;;;;;15.25;10.20;;;;;;;20.69;100.00;94734.16;5051840;28;20184;-59
2022/06/29 07:24:50;;;;;;;11.90;9.77;;;;;;;20.72;100.00;94806.97;5051735;28;20212;-60
2022/06/29 07:27:15;;;;;;;12.88;9.73;;;;;;;20.80;100.00;94788.72;5051569;28;20648;-63
2022/06/29 07:29:41;;;;;;;12.80;8.77;;;;;;;20.90;100.00;94778.03;5051805;28;20228;-64
2022/06/29 07:32:08;;;;;;;11.02;9.52;;;;;;;20.93;100.00;94773.28;5051403;28;20192;-61
2022/06/29 07:34:33;;;;;;;14.88;10.18;;;;;;;20.99;100.00;94782.06;5034020;28;20225;-59
2022/06/29 07:36:59;;;;;;;13.57;11.05;;;;;;;21.04;100.00;94779.75;5055607;28;20235;-59
2022/06/29 07:39:25;;;;;;;13.57;8.60;;;;;;;21.24;100.00;94772.91;5055801;28;20303;-60
2022/06/29 07:41:50;;;;;;;11.73;9.35;;;;;;;21.53;100.00;94775.19;5055469;28;20169;-60
2022/06/29 07:44:15;;;;;;;14.77;9.90;;;;;;;21.55;100.00;94814.63;5037311;28;20277;-59
2022/06/29 07:46:41;;;;;;;15.93;10.02;;;;;;;21.55;100.00;94803.47;5055159;28;20601;-60
2022/06/29 07:49:06;;;;;;;12.48;10.02;;;;;;;21.64;100.00;94779.81;5037151;28;20556;-68
2022/06/29 07:51:32;;;;;;;14.10;10.25;;;;;;;21.68;100.00;94778.44;5055271;28;20260;-68
2022/06/29 07:53:57;;;;;;;13.07;9.98;;;;;;;21.62;100.00;94770.66;5055453;28;20183;-66
2022/06/29 07:56:22;;;;;;;11.20;8.93;;;;;;;21.88;100.00;94764.78;5055575;28;20300;-64
2022/06/29 07:58:48;;;;;;;12.90;10.43;;;;;;;21.93;100.00;94809.00;5037333;28;20182;-63
2022/06/29 08:01:13;;;;;;;12.77;9.85;;;;;;;22.08;100.00;94801.88;5055409;28;20675;-63
2022/06/29 08:03:40;;;;;;;11.55;9.32;;;;;;;22.18;100.00;94820.44;5037072;28;20546;-67
2022/06/29 08:06:06;;;;;;;13.88;8.40;;;;;;;22.07;100.00;94792.50;5055120;28;20209;-67
2022/06/29 08:08:31;;;;;;;14.60;9.40;;;;;;;22.09;100.00;94778.38;5054766;28;20215;-66
2022/06/29 08:10:57;;;;;;;10.88;8.65;;;;;;;22.22;100.00;94743.94;5055099;28;20205;-67
2022/06/29 08:13:23;;;;;;;11.52;8.27;;;;;;;22.44;100.00;94734.97;5054873;28;20562;-67
2022/06/29 08:15:48;;;;;;;13.52;8.90;;;;;;;22.60;100.00;94777.84;5054838;28;20197;-67
2022/06/29 08:18:15;;;;;;;12.40;8.75;;;;;;;22.63;100.00;94773.03;5054724;28;20632;-68
2022/06/29 08:20:40;;;;;;;9.68;7.85;;;;;;;22.80;100.00;94760.47;5055267;28;20702;-62
2022/06/29 08:23:12;;;;;;;13.43;9.60;;;;;;;22.92;100.00;94787.38;5054588;28;20177;-63
2022/06/29 08:25:38;;;;;;;14.23;8.13;;;;;;;23.03;100.00;94774.59;5055088;28;20772;-64
2022/06/29 08:28:05;;;;;;;13.00;8.80;;;;;;;23.06;100.00;94800.13;5054820;28;20211;-67
2022/06/29 08:30:31;;;;;;;12.73;8.35;;;;;;;23.19;100.00;94794.13;5054980;28;20213;-67
2022/06/29 08:32:57;;;;;;;15.45;7.85;;;;;;;23.28;100.00;94798.09;5054526;28;20644;-66
2022/06/29 08:35:22;;;;;;;16.85;8.25;;;;;;;23.32;100.00;94831.25;5054483;28;20277;-67
2022/06/29 08:37:48;;;;;;;8.70;7.57;;;;;;;23.41;100.00;94841.41;5054587;28;20616;-68
2022/06/29 08:40:17;;;;;;;16.88;6.95;;;;;;;23.46;100.00;94846.75;5054723;28;20202;-60
2022/06/29 08:42:44;;;;;;;10.23;7.60;;;;;;;23.49;100.00;94859.34;5054306;28;20174;-64
2022/06/29 08:45:11;;;;;;;9.73;6.93;;;;;;;23.53;100.00;94882.09;5054582;28;20201;-64
2022/06/29 08:47:37;;;;;;;7.28;5.70;;;;;;;23.64;100.00;94849.50;5053718;28;20185;-63
2022/06/29 08:50:04;;;;;;;6.70;5.30;;;;;;;23.78;100.00;94879.63;5054119;28;20718;-64
2022/06/29 08:52:29;;;;;;;5.70;5.10;;;;;;;23.90;100.00;94862.41;5054245;28;20253;-64
2022/06/29 08:54:56;;;;;;;6.47;5.15;;;;;;;24.01;100.00;94882.53;5054417;28;20725;-63
2022/06/29 08:57:23;;;;;;;7.15;5.38;;;;;;;24.02;94.61;94956.88;5053937;28;20288;-63
2022/06/29 08:59:51;;;;;;;11.63;5.20;;;;;;;24.09;91.88;94884.94;5060940;22;20714;-64
2022/06/29 09:02:17;;;;;;;6.35;5.30;;;;;;;24.22;82.16;94951.66;5054098;28;20188;-60
2022/06/29 09:04:42;;;;;;;5.25;4.10;;;;;;;24.51;78.61;94985.72;5053945;28;20252;-66
2022/06/29 09:07:08;;;;;;;6.97;4.00;;;;;;;24.70;74.03;95003.03;5053839;28;20181;-65
2022/06/29 09:10:00;;;;;;;6.68;3.80;;;;;;;24.87;72.56;94992.94;5053531;28;20667;-65
2022/06/29 09:12:26;;;;;;;4.70;4.18;;;;;;;24.96;71.08;94969.09;5028036;28;20618;-64
2022/06/29 09:14:52;;;;;;;6.25;4.20;;;;;;;25.12;72.71;94922.72;5053933;28;20255;-63
2022/06/29 09:17:18;;;;;;;8.13;4.57;;;;;;;25.20;76.53;94858.19;5053486;28;20209;-63
2022/06/29 09:19:46;;;;;;;6.38;4.90;;;;;;;25.24;73.79;94889.78;5053875;28;20622;-65
2022/06/29 09:22:12;;;;;;;9.68;5.15;;;;;;;25.55;76.93;94835.06;5035687;28;20177;-63
2022/06/29 09:24:38;;;;;;;4.95;4.13;;;;;;;25.60;71.92;94934.97;5035581;28;20214;-64
2022/06/29 09:27:08;;;;;;;4.88;4.38;;;;;;;25.77;76.12;94844.81;5053999;28;20177;-64
2022/06/29 09:29:36;;;;;;;6.97;5.03;;;;;;;25.89;74.09;94902.19;5053300;28;20216;-66
2022/06/29 09:32:05;;;;;;;10.32;5.82;;;;;;;26.07;77.53;94824.03;5053617;28;20173;-65
2022/06/29 09:34:34;;;;;;;9.30;7.38;;;;;;;26.44;79.13;94796.03;5053755;28;20294;-66
2022/06/29 09:37:01;;;;;;;6.90;4.80;;;;;;;26.65;78.81;94808.53;5053280;28;20705;-66
2022/06/29 09:39:40;;;;;;;8.10;5.40;;;;;;;26.79;79.82;94796.09;5053798;28;20288;-64
2022/06/29 09:42:08;;;;;;;7.97;4.85;;;;;;;26.58;74.25;94883.50;5053216;28;20173;-63
2022/06/29 09:44:34;;;;;;;7.45;5.28;;;;;;;26.91;70.62;94959.50;5053602;28;20293;-64
2022/06/29 09:47:05;;;;;;;5.15;4.70;;;;;;;26.98;67.73;94988.94;5053177;28;20171;-62
2022/06/29 09:49:33;;;;;;;8.52;5.60;;;;;;;27.01;74.30;94851.94;5053507;28;20217;-64
2022/06/29 09:52:00;;;;;;;4.45;4.05;;;;;;;26.90;67.96;94970.19;5052853;28;20273;-63
2022/06/29 09:54:35;;;;;;;7.13;3.83;;;;;;;26.97;65.21;94994.38;5053365;28;20709;-63
2022/06/29 09:57:01;;;;;;;5.95;4.13;;;;;;;27.06;61.53;95047.88;5034996;28;20630;-63
2022/06/29 10:02:37;;;;;;;10.85;4.60;;;;;;;27.15;71.66;94804.50;5053285;28;20177;-63
2022/06/29 10:08:19;;;;;;;4.95;4.18;;;;;;;27.72;69.66;94849.09;5046158;28;20674;-60
2022/06/29 10:10:52;;;;;;;6.25;4.55;;;;;;;27.82;66.34;94927.72;5052699;28;20221;-64
2022/06/29 10:13:42;;;;;;;4.95;4.50;;;;;;;28.03;67.34;94893.97;5053034;28;20198;-62
2022/06/29 10:16:49;;;;;;;5.25;4.20;;;;;;;27.93;64.07;94980.00;5052786;28;20820;-60
2022/06/29 10:19:43;;;;;;;5.07;3.55;;;;;;;27.97;61.42;95012.53;5053417;28;20212;-63
2022/06/29 10:22:08;;;;;;;4.38;3.63;;;;;;;28.05;62.29;94970.34;5052692;28;20220;-62
2022/06/29 10:24:37;;;;;;;7.07;4.15;;;;;;;28.14;59.18;95031.72;5052891;28;20284;-63
2022/06/29 10:27:06;;;;;;;5.53;3.78;;;;;;;28.14;61.88;94955.09;5052261;28;20184;-62
2022/06/29 10:29:33;;;;;;;6.22;3.85;;;;;;;27.92;60.65;94981.00;5052750;28;20205;-60
2022/06/29 10:32:04;;;;;;;4.35;3.92;;;;;;;27.71;61.00;94968.53;5052303;28;20174;-59
2022/06/29 10:34:37;;;;;;;4.57;3.38;;;;;;;27.85;62.17;94935.09;5052797;28;20206;-61
2022/06/29 10:37:05;;;;;;;4.07;3.70;;;;;;;28.21;61.18;94948.72;5052358;28;20206;-59
2022/06/29 10:39:47;;;;;;;7.07;3.85;;;;;;;28.05;58.51;95011.38;5052753;28;20237;-60
2022/06/29 10:45:08;;;;;;;3.58;3.28;;;;;;;27.63;56.90;95026.38;5052126;28;20710;-59
2022/06/29 10:47:35;;;;;;;5.50;3.95;;;;;;;27.80;59.28;94951.47;5051881;28;20195;-59
2022/06/29 10:50:16;;;;;;;7.25;5.22;;;;;;;28.32;59.00;94954.94;5034134;28;20205;-59
2022/06/29 10:52:44;;;;;;;12.52;5.93;;;;;;;28.70;56.51;95012.78;5052236;28;20593;-62
2022/06/29 10:55:09;;;;;;;8.40;4.28;;;;;;;29.14;57.37;94995.53;5052065;28;20279;-62
2022/06/29 10:57:37;;;;;;;5.35;3.25;;;;;;;28.91;55.52;95046.16;5051944;28;20224;-63
2022/06/29 11:00:08;;;;;;;5.78;3.38;;;;;;;29.04;53.05;95087.81;5034592;28;20241;-60
2022/06/29 11:02:34;;;;;;;4.57;3.40;;;;;;;29.45;53.84;95062.38;5034172;28;20655;-63
2022/06/29 11:04:59;;;;;;;3.70;3.40;;;;;;;29.53;52.50;95077.69;5051724;28;20202;-62
2022/06/29 11:12:57;;;;;;;8.63;3.00;;;;;;;29.92;46.61;95186.94;5058743;22;20283;-63
2022/06/29 11:15:39;;;;;;;2.70;2.50;;;;;;;29.95;45.18;95185.69;5052080;28;20198;-64
2022/06/29 11:18:11;;;;;;;2.90;2.55;;;;;;;30.14;50.51;95017.31;5052023;28;20212;-64
2022/06/29 11:20:36;;;;;;;4.68;3.05;;;;;;;30.33;44.36;95191.88;5051715;28;20200;-65
2022/06/29 11:23:02;;;;;;;5.00;3.00;;;;;;;30.44;49.54;95022.22;5051332;28;20173;-62
2022/06/29 11:25:35;;;;;;;5.35;2.70;;;;;;;30.73;50.38;95007.84;5051527;28;20217;-62
2022/06/29 11:28:01;;;;;;;6.72;2.95;;;;;;;30.92;49.44;95029.34;5051944;28;20178;-63
2022/06/29 11:30:27;;;;;;;3.17;2.88;;;;;;;31.03;45.03;95159.81;5033806;28;20823;-65
2022/06/29 11:32:52;;;;;;;8.02;2.85;;;;;;;31.17;42.52;95201.22;5051903;28;20181;-63
2022/06/29 11:35:23;;;;;;;4.60;3.40;;;;;;;31.30;45.61;95066.03;5051984;28;20718;-62
2022/06/29 11:37:53;;;;;;;5.75;2.83;;;;;;;31.24;41.70;95172.94;5051817;28;20213;-61
2022/06/29 11:40:36;;;;;;;4.30;2.67;;;;;;;31.20;40.60;95195.50;5051332;28;20201;-60